Time;durP1;ratioP1;P1;durP2;ratioP2;P2;SDS_P1;SDS_P2;PMS_P1;PMS_P2;Temp;Humidity;BMP_temperature;BMP_pressure;BME280_temperature;BME280_humidity;BME280_pressure;Samples;Min_cycle;Max_cycle;Signal;HPM_P1;HPM_P2
2023/07/05 00:01:49;;;;;;;1.07;0.97;;;17.40;99.90;;;;;;5031921;28;20436;-78
2023/07/05 00:04:16;;;;;;;0.67;0.67;;;17.40;99.90;;;;;;5031863;28;20430;-78
2023/07/05 00:06:42;;;;;;;0.73;0.73;;;17.30;99.90;;;;;;5029725;28;20463;-80
2023/07/05 00:09:09;;;;;;;2.13;2.03;;;17.20;99.90;;;;;;5026998;28;20965;-80
2023/07/05 00:11:37;;;;;;;0.50;0.40;;;17.10;99.90;;;;;;5027473;28;20448;-80
2023/07/05 00:14:04;;;;;;;0.73;0.70;;;17.10;99.90;;;;;;5030705;28;20947;-80
2023/07/05 00:16:31;;;;;;;1.07;1.07;;;17.00;99.90;;;;;;5034066;28;20823;-80
2023/07/05 00:18:57;;;;;;;0.50;0.30;;;16.90;99.90;;;;;;5030582;28;20476;-80
2023/07/05 00:21:25;;;;;;;0.50;0.30;;;16.90;99.90;;;;;;5031140;28;20518;-80
2023/07/05 00:23:52;;;;;;;0.53;0.40;;;16.80;99.90;;;;;;5033655;28;20493;-78
2023/07/05 00:26:19;;;;;;;0.50;0.40;;;16.80;99.90;;;;;;5034091;28;20472;-80
2023/07/05 00:28:49;;;;;;;0.50;0.40;;;16.80;99.90;;;;;;5032621;28;20548;-80
2023/07/05 00:31:16;;;;;;;0.50;0.50;;;16.70;99.90;;;;;;5032326;28;20477;-81
2023/07/05 00:33:42;;;;;;;0.50;0.30;;;16.60;99.90;;;;;;5032501;28;21152;-80
2023/07/05 00:36:09;;;;;;;0.50;0.30;;;16.50;99.90;;;;;;5035829;28;20517;-80
2023/07/05 00:38:36;;;;;;;0.50;0.40;;;16.50;99.90;;;;;;5034468;28;21037;-79
2023/07/05 00:41:03;;;;;;;0.50;0.40;;;16.40;99.90;;;;;;5033802;28;20441;-80
2023/07/05 00:43:30;;;;;;;1.00;0.90;;;16.30;99.90;;;;;;5033614;28;20430;-79
2023/07/05 00:46:00;;;;;;;0.50;0.40;;;16.20;99.90;;;;;;5030065;28;20447;-80
2023/07/05 00:48:33;;;;;;;0.50;0.40;;;16.20;99.90;;;;;;5029406;28;20432;-80
2023/07/05 00:51:05;;;;;;;0.60;0.50;;;16.20;99.90;;;;;;5032255;28;20458;-80
2023/07/05 00:53:36;;;;;;;0.70;0.50;;;16.20;99.90;;;;;;5033569;28;20446;-79
2023/07/05 00:56:10;;;;;;;0.50;0.30;;;16.10;99.90;;;;;;5022756;28;20465;-78
2023/07/05 00:58:37;;;;;;;0.50;0.40;;;16.10;99.90;;;;;;5030109;28;20475;-77
2023/07/05 01:01:06;;;;;;;0.90;0.70;;;16.10;99.90;;;;;;5033376;28;20454;-80
2023/07/05 01:03:33;;;;;;;0.50;0.40;;;16.10;99.90;;;;;;5033278;28;20447;-80
2023/07/05 01:06:00;;;;;;;0.80;0.80;;;16.10;99.90;;;;;;5029658;28;20455;-80
2023/07/05 01:08:27;;;;;;;0.50;0.40;;;16.10;99.90;;;;;;5030255;28;20455;-79
2023/07/05 01:11:02;;;;;;;0.50;0.30;;;16.00;99.90;;;;;;5032196;28;20447;-80
2023/07/05 01:13:33;;;;;;;0.50;0.40;;;16.10;99.90;;;;;;5034286;28;20459;-79
2023/07/05 01:16:12;;;;;;;0.60;0.50;;;16.20;99.90;;;;;;5032459;28;20461;-79
2023/07/05 01:18:47;;;;;;;0.70;0.70;;;16.20;99.90;;;;;;5033257;28;20485;-77
2023/07/05 01:21:21;;;;;;;0.50;0.30;;;16.20;99.90;;;;;;5035930;28;20435;-80
2023/07/05 01:24:20;;;;;;;0.50;0.33;;;16.20;99.90;;;;;;5034595;28;20448;-80
2023/07/05 01:27:25;;;;;;;0.50;0.40;;;16.20;99.90;;;;;;5032916;28;20463;-79
2023/07/05 01:30:19;;;;;;;0.50;0.30;;;16.10;99.90;;;;;;5032672;28;20438;-80
2023/07/05 01:32:54;;;;;;;0.60;0.40;;;16.10;99.90;;;;;;5033633;28;20451;-80
2023/07/05 01:35:23;;;;;;;1.03;0.93;;;16.20;99.90;;;;;;5035311;28;20784;-80
2023/07/05 01:37:51;;;;;;;0.50;0.40;;;16.20;99.90;;;;;;5033442;28;20485;-80
2023/07/05 01:40:50;;;;;;;1.70;0.80;;;16.20;99.90;;;;;;5031362;28;20484;-79
2023/07/05 01:43:18;;;;;;;1.73;1.37;;;16.20;99.90;;;;;;5032618;28;20441;-80
2023/07/05 01:45:53;;;;;;;0.50;0.30;;;16.20;99.90;;;;;;5033135;28;20523;-79
2023/07/05 01:48:29;;;;;;;0.70;0.67;;;16.30;99.90;;;;;;5034723;28;20825;-78
2023/07/05 01:51:01;;;;;;;1.33;1.03;;;16.20;99.90;;;;;;5032862;28;20837;-80
2023/07/05 01:53:34;;;;;;;0.53;0.53;;;16.30;99.90;;;;;;5032688;28;20447;-79
2023/07/05 01:56:05;;;;;;;0.50;0.40;;;16.20;99.90;;;;;;5034448;28;20822;-80
2023/07/05 01:58:36;;;;;;;0.50;0.40;;;16.20;99.90;;;;;;5035581;28;20537;-78
2023/07/05 02:01:05;;;;;;;0.50;0.40;;;16.20;99.90;;;;;;5031168;28;20454;-80
2023/07/05 02:03:34;;;;;;;1.17;1.17;;;16.20;99.90;;;;;;5031804;28;20531;-81
2023/07/05 02:06:01;;;;;;;0.50;0.30;;;16.30;99.90;;;;;;5033343;28;20547;-81
2023/07/05 02:08:30;;;;;;;1.70;1.60;;;16.30;99.90;;;;;;5034508;28;20525;-80
2023/07/05 02:10:56;;;;;;;0.50;0.40;;;16.30;99.90;;;;;;5031880;28;20457;-80
2023/07/05 02:13:23;;;;;;;0.50;0.30;;;16.30;99.90;;;;;;5031166;28;20443;-79
2023/07/05 02:15:50;;;;;;;0.50;0.40;;;16.30;99.90;;;;;;5031887;28;20447;-77
2023/07/05 02:18:17;;;;;;;0.50;0.40;;;16.40;99.90;;;;;;5032561;28;20452;-79
2023/07/05 02:20:45;;;;;;;0.50;0.30;;;16.40;99.90;;;;;;5032895;28;20459;-80
2023/07/05 02:23:12;;;;;;;0.50;0.50;;;16.40;99.90;;;;;;5032813;28;20921;-80
2023/07/05 02:25:39;;;;;;;0.60;0.60;;;16.40;99.90;;;;;;5034198;28;20847;-77
2023/07/05 02:28:06;;;;;;;0.70;0.60;;;16.50;99.90;;;;;;5030629;28;20674;-80
2023/07/05 02:30:35;;;;;;;0.60;0.40;;;16.50;99.90;;;;;;5029769;28;20445;-80
2023/07/05 02:33:02;;;;;;;0.50;0.50;;;16.50;99.90;;;;;;5033519;28;20450;-79
2023/07/05 02:35:29;;;;;;;2.40;0.60;;;16.50;99.90;;;;;;5034807;28;20449;-80
2023/07/05 02:37:57;;;;;;;0.90;0.90;;;16.50;99.90;;;;;;5031957;28;20460;-78
2023/07/05 02:40:24;;;;;;;1.17;1.07;;;16.50;99.90;;;;;;5030798;28;20476;-80
2023/07/05 02:42:51;;;;;;;0.60;0.40;;;16.50;99.90;;;;;;5031357;28;20437;-77
2023/07/05 02:45:17;;;;;;;0.50;0.40;;;16.50;99.90;;;;;;5031424;28;20595;-79
2023/07/05 02:47:44;;;;;;;4.87;1.20;;;16.40;99.90;;;;;;5032004;28;20469;-78
2023/07/05 02:50:14;;;;;;;0.50;0.30;;;16.50;99.90;;;;;;5034098;28;20438;-80
2023/07/05 02:52:41;;;;;;;0.60;0.53;;;16.40;99.90;;;;;;5035115;28;20481;-80
2023/07/05 02:55:09;;;;;;;0.83;0.83;;;16.40;99.90;;;;;;5029245;28;20451;-79
2023/07/05 02:57:36;;;;;;;0.50;0.40;;;16.40;99.90;;;;;;5024267;28;20992;-79
2023/07/05 03:00:06;;;;;;;0.50;0.40;;;16.40;99.90;;;;;;5025169;28;20476;-78
2023/07/05 03:02:33;;;;;;;0.77;0.77;;;16.40;99.90;;;;;;5021292;28;20446;-79
2023/07/05 03:05:07;;;;;;;0.50;0.30;;;16.50;99.90;;;;;;5025722;28;20464;-79
2023/07/05 03:07:34;;;;;;;0.50;0.40;;;16.50;99.90;;;;;;5027333;28;20465;-79
2023/07/05 03:10:01;;;;;;;0.50;0.40;;;16.50;99.90;;;;;;5025165;28;20809;-78
2023/07/05 03:12:29;;;;;;;0.50;0.30;;;16.50;99.90;;;;;;5023962;28;20443;-79
2023/07/05 03:14:56;;;;;;;0.50;0.30;;;16.50;99.90;;;;;;5024000;28;20492;-78
2023/07/05 03:17:23;;;;;;;0.50;0.40;;;16.50;99.90;;;;;;5026213;28;20463;-78
2023/07/05 03:19:52;;;;;;;0.50;0.40;;;16.50;99.90;;;;;;5025793;28;20475;-76
2023/07/05 03:22:19;;;;;;;1.33;0.60;;;16.50;99.90;;;;;;5017517;28;20871;-79
2023/07/05 03:24:45;;;;;;;0.60;0.60;;;16.50;99.90;;;;;;5025239;28;20465;-79
2023/07/05 03:27:12;;;;;;;0.50;0.30;;;16.50;99.90;;;;;;5022307;28;20458;-77
2023/07/05 03:29:40;;;;;;;0.60;0.50;;;16.50;99.90;;;;;;5021248;28;20515;-79
2023/07/05 03:32:08;;;;;;;3.83;1.73;;;16.40;99.90;;;;;;5023694;28;20443;-79
2023/07/05 03:34:35;;;;;;;0.63;0.63;;;16.30;99.90;;;;;;5023714;28;20444;-78
2023/07/05 03:37:01;;;;;;;1.10;1.00;;;16.20;99.90;;;;;;5023024;28;20467;-79
2023/07/05 03:39:28;;;;;;;1.00;0.90;;;16.10;99.90;;;;;;5023527;28;20487;-78
2023/07/05 03:41:55;;;;;;;0.60;0.60;;;16.00;99.90;;;;;;5023054;28;20442;-78
2023/07/05 03:44:22;;;;;;;0.87;0.87;;;15.90;99.90;;;;;;5024600;28;20438;-79
2023/07/05 03:46:50;;;;;;;0.87;0.80;;;15.80;99.90;;;;;;5023029;28;20466;-79
2023/07/05 03:49:17;;;;;;;0.50;0.33;;;15.70;99.90;;;;;;5012785;28;20872;-79
2023/07/05 03:51:44;;;;;;;0.50;0.40;;;15.50;99.90;;;;;;5024248;28;20439;-79
2023/07/05 03:54:11;;;;;;;4.10;0.70;;;15.40;99.90;;;;;;5026453;28;20446;-79
2023/07/05 03:56:37;;;;;;;1.03;0.50;;;15.30;99.90;;;;;;5026630;28;20828;-78
2023/07/05 03:59:04;;;;;;;0.50;0.40;;;15.20;99.90;;;;;;5024235;28;20475;-77
2023/07/05 04:01:32;;;;;;;1.17;0.60;;;15.10;99.90;;;;;;5024025;28;20445;-79
2023/07/05 04:04:01;;;;;;;0.50;0.40;;;15.00;99.90;;;;;;5024376;28;20450;-80
2023/07/05 04:06:31;;;;;;;0.50;0.40;;;14.90;99.90;;;;;;5030361;28;20466;-79
2023/07/05 04:08:58;;;;;;;0.60;0.60;;;14.80;99.90;;;;;;5024184;28;20441;-79
2023/07/05 04:11:25;;;;;;;1.43;0.97;;;14.80;99.90;;;;;;5026872;28;20433;-79
2023/07/05 04:13:54;;;;;;;2.80;0.50;;;14.70;99.90;;;;;;5027651;28;20446;-75
2023/07/05 04:16:24;;;;;;;2.70;0.70;;;14.70;99.90;;;;;;5016850;28;20466;-79
2023/07/05 04:18:53;;;;;;;0.50;0.33;;;14.60;99.90;;;;;;5024557;28;20935;-79
2023/07/05 04:21:21;;;;;;;0.50;0.40;;;14.60;99.90;;;;;;5017046;28;20442;-80
2023/07/05 04:23:48;;;;;;;3.80;0.67;;;14.60;99.90;;;;;;5024693;28;20439;-79
2023/07/05 04:26:17;;;;;;;0.60;0.40;;;14.50;99.90;;;;;;5026552;28;20463;-79
2023/07/05 04:28:44;;;;;;;0.50;0.30;;;14.40;99.90;;;;;;5027948;28;20440;-79
2023/07/05 04:31:15;;;;;;;0.50;0.40;;;14.40;99.90;;;;;;5024744;28;20444;-79
2023/07/05 04:33:42;;;;;;;0.50;0.50;;;14.30;99.90;;;;;;5023825;28;20867;-79
2023/07/05 04:36:09;;;;;;;0.50;0.50;;;14.40;99.90;;;;;;5025854;28;20464;-79
2023/07/05 04:38:37;;;;;;;0.77;0.77;;;14.30;99.90;;;;;;5027265;28;20958;-79
2023/07/05 04:41:03;;;;;;;0.50;0.40;;;14.40;99.90;;;;;;5027104;28;20500;-79
2023/07/05 04:43:30;;;;;;;0.50;0.40;;;14.40;99.90;;;;;;5027480;28;20438;-77
2023/07/05 04:46:00;;;;;;;0.50;0.37;;;14.40;99.90;;;;;;5026515;28;20454;-76
2023/07/05 04:48:29;;;;;;;2.40;0.83;;;14.30;99.90;;;;;;5023704;28;20444;-79
2023/07/05 04:50:57;;;;;;;0.70;0.70;;;14.30;99.90;;;;;;5024010;28;20465;-78
2023/07/05 04:53:25;;;;;;;4.00;0.60;;;14.30;99.90;;;;;;5015794;28;20473;-79
2023/07/05 04:55:55;;;;;;;0.50;0.40;;;14.30;99.90;;;;;;5023700;28;20447;-79
2023/07/05 04:58:23;;;;;;;0.60;0.50;;;14.30;99.90;;;;;;5027687;28;20438;-79
2023/07/05 05:00:50;;;;;;;0.50;0.40;;;14.20;99.90;;;;;;5027875;28;20477;-78
2023/07/05 05:03:19;;;;;;;0.50;0.40;;;14.30;99.90;;;;;;5027373;28;20452;-79
2023/07/05 05:05:46;;;;;;;0.87;0.87;;;14.30;99.90;;;;;;5028190;28;20466;-79
2023/07/05 05:08:13;;;;;;;0.50;0.40;;;14.30;99.90;;;;;;5024974;28;20446;-79
2023/07/05 05:10:40;;;;;;;0.60;0.47;;;14.30;99.90;;;;;;5023471;28;20450;-78
2023/07/05 05:13:09;;;;;;;2.40;1.20;;;14.30;99.90;;;;;;5024223;28;20814;-79
2023/07/05 05:15:37;;;;;;;0.93;0.93;;;14.40;99.90;;;;;;5026787;28;20448;-78
2023/07/05 05:18:04;;;;;;;0.90;0.60;;;14.50;99.90;;;;;;5025699;28;20464;-79
2023/07/05 05:20:31;;;;;;;1.20;0.70;;;14.60;99.90;;;;;;5026927;28;20484;-79
2023/07/05 05:22:59;;;;;;;0.50;0.40;;;14.70;99.90;;;;;;5026357;28;20976;-78
2023/07/05 05:25:26;;;;;;;1.33;0.60;;;14.70;99.90;;;;;;5010167;28;20442;-79
2023/07/05 05:27:53;;;;;;;0.60;0.40;;;14.80;99.90;;;;;;5025867;28;20553;-79
2023/07/05 05:30:21;;;;;;;0.60;0.50;;;14.70;99.90;;;;;;5023983;28;21282;-79
2023/07/05 05:32:48;;;;;;;1.10;1.00;;;14.80;99.90;;;;;;5024215;28;20443;-79
2023/07/05 05:35:16;;;;;;;1.47;1.10;;;14.80;99.90;;;;;;5023597;28;20524;-80
2023/07/05 05:37:43;;;;;;;0.60;0.50;;;14.80;99.90;;;;;;5025758;28;20465;-79
2023/07/05 05:40:11;;;;;;;1.17;0.70;;;14.90;99.90;;;;;;5023803;28;20477;-79
2023/07/05 05:42:38;;;;;;;1.67;1.57;;;15.00;99.90;;;;;;5022568;28;20537;-79
2023/07/05 05:45:06;;;;;;;0.90;0.90;;;15.20;99.90;;;;;;5023179;28;20447;-79
2023/07/05 05:47:34;;;;;;;0.50;0.40;;;15.20;99.90;;;;;;5025789;28;20470;-79
2023/07/05 05:50:01;;;;;;;1.17;1.03;;;15.20;99.90;;;;;;5025437;28;20442;-79
2023/07/05 05:52:28;;;;;;;1.07;1.07;;;15.30;99.90;;;;;;5023815;28;20930;-79
2023/07/05 05:54:54;;;;;;;2.30;0.53;;;15.20;99.90;;;;;;5022811;28;20462;-75
2023/07/05 05:57:21;;;;;;;0.60;0.50;;;15.20;99.90;;;;;;5025356;28;20834;-77
2023/07/05 05:59:48;;;;;;;0.80;0.80;;;15.10;99.90;;;;;;5025749;28;20475;-78
2023/07/05 06:02:16;;;;;;;0.50;0.40;;;15.10;99.90;;;;;;5023659;28;20450;-78
2023/07/05 06:04:44;;;;;;;1.07;0.97;;;15.10;99.90;;;;;;5024821;28;20445;-79
2023/07/05 06:07:10;;;;;;;3.67;1.00;;;15.10;99.90;;;;;;5024987;28;20474;-78
2023/07/05 06:09:38;;;;;;;0.83;0.80;;;15.00;99.90;;;;;;5023589;28;20894;-78
2023/07/05 06:12:06;;;;;;;1.73;0.83;;;14.90;99.90;;;;;;5024070;28;20796;-76
2023/07/05 06:14:32;;;;;;;0.70;0.70;;;14.80;99.90;;;;;;5024561;28;20442;-78
2023/07/05 06:16:59;;;;;;;0.60;0.60;;;14.90;99.90;;;;;;5026528;28;20473;-79
2023/07/05 06:19:26;;;;;;;2.80;0.50;;;14.90;99.90;;;;;;5029422;28;20529;-79
2023/07/05 06:21:54;;;;;;;0.87;0.67;;;15.10;99.90;;;;;;5030685;28;20446;-78
2023/07/05 06:24:21;;;;;;;0.50;0.40;;;15.20;99.90;;;;;;5027965;28;20455;-79
2023/07/05 06:26:47;;;;;;;3.40;0.60;;;15.20;99.90;;;;;;5027178;28;20471;-79
2023/07/05 06:29:14;;;;;;;1.13;0.77;;;15.20;99.90;;;;;;5026352;28;20447;-79
2023/07/05 06:31:41;;;;;;;1.27;0.53;;;15.00;99.90;;;;;;5029590;28;20440;-79
2023/07/05 06:34:08;;;;;;;1.00;0.87;;;15.00;99.90;;;;;;5027561;28;20934;-79
2023/07/05 06:36:34;;;;;;;2.60;1.80;;;14.70;99.90;;;;;;5025949;28;20459;-79
2023/07/05 06:39:03;;;;;;;0.60;0.53;;;14.60;99.90;;;;;;5024646;28;20442;-79
2023/07/05 06:41:29;;;;;;;0.50;0.40;;;14.50;99.90;;;;;;5027688;28;20482;-79
2023/07/05 06:43:56;;;;;;;0.50;0.40;;;14.40;99.90;;;;;;5028375;28;20465;-77
2023/07/05 06:46:23;;;;;;;1.10;0.70;;;14.40;99.90;;;;;;5026586;28;20468;-79
2023/07/05 06:48:50;;;;;;;0.60;0.50;;;14.40;99.90;;;;;;5024604;28;20964;-79
2023/07/05 06:51:17;;;;;;;0.50;0.40;;;14.40;99.90;;;;;;5026074;28;20450;-78
2023/07/05 06:53:45;;;;;;;0.50;0.50;;;14.70;99.90;;;;;;5027226;28;20813;-77
2023/07/05 06:56:13;;;;;;;0.80;0.60;;;15.20;99.90;;;;;;5025737;28;20465;-78
2023/07/05 06:58:39;;;;;;;1.83;1.23;;;15.50;99.90;;;;;;5027758;28;20438;-78
2023/07/05 07:01:06;;;;;;;1.63;1.17;;;15.50;99.90;;;;;;5027127;28;20481;-79
2023/07/05 07:03:33;;;;;;;0.97;0.87;;;15.50;99.90;;;;;;5029231;28;20530;-78
2023/07/05 07:06:00;;;;;;;3.20;1.17;;;15.50;99.90;;;;;;5031048;28;20506;-79
2023/07/05 07:08:31;;;;;;;0.50;0.37;;;15.50;99.90;;;;;;5029453;28;21055;-79
2023/07/05 07:11:01;;;;;;;0.73;0.73;;;15.60;99.90;;;;;;5030469;28;20465;-79
2023/07/05 07:13:29;;;;;;;0.80;0.67;;;15.50;99.90;;;;;;5027685;28;20446;-78
2023/07/05 07:16:00;;;;;;;1.43;0.97;;;15.30;99.90;;;;;;5025853;28;20788;-79
2023/07/05 07:18:27;;;;;;;0.80;0.80;;;15.20;99.90;;;;;;5028449;28;20447;-79
2023/07/05 07:20:55;;;;;;;1.43;1.33;;;15.30;99.90;;;;;;5028969;28;20477;-79
2023/07/05 07:23:22;;;;;;;5.13;1.93;;;15.20;99.90;;;;;;5027710;28;20439;-78
2023/07/05 07:25:58;;;;;;;1.83;1.30;;;15.10;99.90;;;;;;5025645;28;20525;-80
2023/07/05 07:28:25;;;;;;;0.67;0.67;;;15.10;99.90;;;;;;5028391;28;20442;-79
2023/07/05 07:30:53;;;;;;;1.63;1.03;;;15.00;99.90;;;;;;5027914;28;21009;-77
2023/07/05 07:33:19;;;;;;;1.33;0.73;;;14.90;99.90;;;;;;5027672;28;20448;-78
2023/07/05 07:35:47;;;;;;;3.33;1.27;;;14.90;99.90;;;;;;5025415;28;20443;-76
2023/07/05 07:38:14;;;;;;;2.83;0.83;;;14.80;99.90;;;;;;5024795;28;20443;-77
2023/07/05 07:40:41;;;;;;;1.13;0.77;;;14.80;99.90;;;;;;5029133;28;20486;-80
2023/07/05 07:43:09;;;;;;;0.77;0.63;;;14.80;99.90;;;;;;5028264;28;20439;-79
2023/07/05 07:45:36;;;;;;;12.67;2.97;;;14.80;99.90;;;;;;5026503;28;20444;-79
2023/07/05 07:48:04;;;;;;;3.43;2.20;;;14.80;99.90;;;;;;5025041;28;20849;-78
2023/07/05 07:50:31;;;;;;;0.50;0.40;;;14.60;99.90;;;;;;5025996;28;20528;-79
2023/07/05 07:52:58;;;;;;;1.03;0.93;;;14.50;99.90;;;;;;5027611;28;20446;-79
2023/07/05 07:55:25;;;;;;;0.50;0.40;;;14.50;99.90;;;;;;5025947;28;20446;-78
2023/07/05 07:57:52;;;;;;;0.83;0.50;;;14.40;99.90;;;;;;5024400;28;20549;-79
2023/07/05 08:00:19;;;;;;;0.70;0.53;;;14.50;99.90;;;;;;5025078;28;20483;-78
2023/07/05 08:02:46;;;;;;;0.50;0.40;;;14.50;99.90;;;;;;5029582;28;20446;-80
2023/07/05 08:05:15;;;;;;;0.50;0.40;;;14.50;99.90;;;;;;5029918;28;20449;-78
2023/07/05 08:07:43;;;;;;;0.70;0.50;;;14.60;99.90;;;;;;5018638;28;20468;-80
2023/07/05 08:10:11;;;;;;;0.90;0.60;;;14.80;99.90;;;;;;5022054;28;20457;-78
2023/07/05 08:12:38;;;;;;;0.50;0.40;;;15.00;99.90;;;;;;5022916;28;20450;-78
2023/07/05 08:15:06;;;;;;;0.90;0.70;;;15.20;99.90;;;;;;5023498;28;20951;-78
2023/07/05 08:17:34;;;;;;;0.80;0.50;;;15.40;99.90;;;;;;5021248;28;20465;-79
2023/07/05 08:20:01;;;;;;;0.50;0.40;;;15.50;99.90;;;;;;5019162;28;20478;-78
2023/07/05 08:22:30;;;;;;;0.70;0.70;;;15.50;99.90;;;;;;5021374;28;20861;-79
2023/07/05 08:24:56;;;;;;;1.63;0.60;;;15.50;99.90;;;;;;5023598;28;20442;-74
2023/07/05 08:27:24;;;;;;;0.50;0.37;;;15.30;99.90;;;;;;5021911;28;20453;-79
2023/07/05 08:29:51;;;;;;;1.27;1.17;;;15.30;99.90;;;;;;5016605;28;20438;-78
2023/07/05 08:32:19;;;;;;;1.03;0.53;;;15.20;99.90;;;;;;5024355;28;20431;-76
2023/07/05 08:34:46;;;;;;;0.50;0.40;;;15.30;99.90;;;;;;5020558;28;20803;-78
2023/07/05 08:37:12;;;;;;;0.50;0.40;;;15.20;99.90;;;;;;5024359;28;20535;-79
2023/07/05 08:39:41;;;;;;;0.50;0.40;;;15.10;99.90;;;;;;5024695;28;20905;-79
2023/07/05 08:42:27;;;;;;;0.50;0.50;;;15.10;99.90;;;;;;5028298;28;20485;-79
2023/07/05 08:45:01;;;;;;;0.57;0.43;;;15.10;99.90;;;;;;5023308;28;20432;-77
2023/07/05 08:47:32;;;;;;;0.50;0.40;;;15.00;99.90;;;;;;5031571;28;20466;-79
2023/07/05 08:50:15;;;;;;;0.50;0.40;;;15.00;99.90;;;;;;5032648;28;20458;-79
2023/07/05 08:52:45;;;;;;;0.70;0.60;;;15.00;99.90;;;;;;5029190;28;20431;-79
2023/07/05 08:55:16;;;;;;;1.43;1.03;;;15.00;99.90;;;;;;5029604;28;20442;-79
2023/07/05 08:57:50;;;;;;;0.50;0.40;;;15.00;99.90;;;;;;5031995;28;20984;-79
2023/07/05 09:00:20;;;;;;;0.70;0.50;;;15.00;99.90;;;;;;5032279;28;20442;-79
2023/07/05 09:02:47;;;;;;;0.90;0.47;;;15.10;99.90;;;;;;5022361;28;20435;-79
2023/07/05 09:05:16;;;;;;;0.60;0.50;;;15.10;99.90;;;;;;5030559;28;20435;-79
2023/07/05 09:07:54;;;;;;;1.63;1.10;;;15.20;99.90;;;;;;5028326;28;20450;-78
2023/07/05 09:10:28;;;;;;;0.60;0.60;;;15.20;99.90;;;;;;5026458;28;20446;-78
2023/07/05 09:13:04;;;;;;;0.50;0.40;;;15.20;99.90;;;;;;5026633;28;20443;-77
2023/07/05 09:15:37;;;;;;;0.50;0.40;;;15.40;99.90;;;;;;5024703;28;20439;-79
2023/07/05 09:18:13;;;;;;;5.20;1.80;;;15.60;99.90;;;;;;5025637;28;20530;-79
2023/07/05 09:20:54;;;;;;;0.50;0.30;;;15.70;99.90;;;;;;5023350;28;20848;-79
2023/07/05 09:23:28;;;;;;;1.60;0.73;;;15.90;99.90;;;;;;5023179;28;20449;-79
2023/07/05 09:26:03;;;;;;;0.63;0.50;;;16.30;99.90;;;;;;5015813;28;20441;-79
2023/07/05 09:28:35;;;;;;;6.63;0.87;;;17.00;99.90;;;;;;5022592;28;20439;-79
2023/07/05 09:31:01;;;;;;;1.43;0.70;;;17.60;99.90;;;;;;5023148;28;20447;-77
2023/07/05 09:33:33;;;;;;;0.50;0.40;;;17.60;99.90;;;;;;5023336;28;20439;-79
2023/07/05 09:36:05;;;;;;;0.60;0.57;;;17.40;99.90;;;;;;5026237;28;20809;-79
2023/07/05 09:38:37;;;;;;;0.70;0.60;;;17.40;99.90;;;;;;5024928;28;20436;-79
2023/07/05 09:41:10;;;;;;;0.60;0.50;;;17.70;99.90;;;;;;5023665;28;20481;-79
2023/07/05 09:43:37;;;;;;;1.17;0.93;;;18.10;99.90;;;;;;5024921;28;20454;-78
2023/07/05 09:46:06;;;;;;;0.50;0.40;;;18.10;99.90;;;;;;5027595;28;21026;-78
2023/07/05 09:48:41;;;;;;;0.60;0.60;;;18.00;99.90;;;;;;5027858;28;20434;-82
2023/07/05 09:51:08;;;;;;;0.60;0.60;;;18.10;99.90;;;;;;5023026;28;20487;-79
2023/07/05 09:53:41;;;;;;;0.50;0.30;;;18.00;99.90;;;;;;5025152;28;20440;-78
2023/07/05 09:56:12;;;;;;;0.50;0.40;;;18.20;99.90;;;;;;5028705;28;20468;-79
2023/07/05 09:58:43;;;;;;;1.83;1.27;;;18.40;99.90;;;;;;5025241;28;20455;-79
2023/07/05 10:01:14;;;;;;;0.50;0.40;;;18.10;99.90;;;;;;5022264;28;20478;-77
2023/07/05 10:03:49;;;;;;;1.17;0.60;;;17.80;99.90;;;;;;5026168;28;20447;-78
2023/07/05 10:06:19;;;;;;;0.50;0.30;;;18.00;99.90;;;;;;5029549;28;20854;-80
2023/07/05 10:08:49;;;;;;;1.33;0.97;;;18.00;99.90;;;;;;5025408;28;20538;-80
2023/07/05 10:11:22;;;;;;;1.80;1.17;;;18.00;99.90;;;;;;5025038;28;20452;-80
2023/07/05 10:14:03;;;;;;;0.73;0.63;;;18.10;99.90;;;;;;5026273;28;20504;-79
2023/07/05 10:16:48;;;;;;;2.93;0.80;;;18.00;99.90;;;;;;5026615;28;20473;-79
2023/07/05 10:19:29;;;;;;;0.60;0.60;;;18.10;99.90;;;;;;5023215;28;20799;-79
2023/07/05 10:22:03;;;;;;;1.53;1.43;;;18.30;99.90;;;;;;5017208;28;20479;-78
2023/07/05 10:24:34;;;;;;;0.77;0.70;;;18.50;99.90;;;;;;5025061;28;20451;-79
2023/07/05 10:27:22;;;;;;;0.50;0.40;;;18.50;99.90;;;;;;5029003;28;20461;-79
2023/07/05 10:29:50;;;;;;;0.60;0.60;;;18.50;99.90;;;;;;5029540;28;20443;-78
2023/07/05 10:32:20;;;;;;;0.70;0.43;;;18.40;99.90;;;;;;5030186;28;20471;-78
2023/07/05 10:34:50;;;;;;;0.60;0.50;;;18.30;99.90;;;;;;5032327;28;20513;-77
2023/07/05 10:37:28;;;;;;;0.50;0.40;;;18.10;99.90;;;;;;5034151;28;20458;-78
2023/07/05 10:39:55;;;;;;;0.60;0.40;;;18.20;99.90;;;;;;5020380;28;20427;-78
2023/07/05 10:42:24;;;;;;;1.00;0.80;;;18.20;99.90;;;;;;5030251;28;20542;-80
2023/07/05 10:44:52;;;;;;;0.50;0.40;;;18.40;99.90;;;;;;5033564;28;20437;-80
2023/07/05 10:47:21;;;;;;;0.53;0.40;;;18.70;99.90;;;;;;5034471;28;20832;-78
2023/07/05 10:49:52;;;;;;;0.50;0.50;;;18.80;99.90;;;;;;5031510;28;20961;-77
2023/07/05 10:52:20;;;;;;;0.50;0.40;;;18.70;99.90;;;;;;5031680;28;20465;-79
2023/07/05 10:54:54;;;;;;;0.80;0.70;;;18.60;99.90;;;;;;5032691;28;20451;-79
2023/07/05 10:57:27;;;;;;;1.80;1.03;;;18.70;99.90;;;;;;5028697;28;20553;-79
2023/07/05 11:00:02;;;;;;;0.77;0.70;;;18.60;99.90;;;;;;5023255;28;20439;-79
2023/07/05 11:02:40;;;;;;;0.50;0.50;;;18.70;99.90;;;;;;5025180;28;20496;-80
2023/07/05 11:05:19;;;;;;;1.37;0.43;;;18.70;99.90;;;;;;5017971;28;20993;-80
2023/07/05 11:07:49;;;;;;;0.50;0.40;;;18.60;99.90;;;;;;5026659;28;20466;-78
2023/07/05 11:10:17;;;;;;;0.50;0.30;;;18.50;99.90;;;;;;5028288;28;20442;-79
2023/07/05 11:12:48;;;;;;;0.50;0.30;;;19.00;99.90;;;;;;5027826;28;20492;-78
2023/07/05 11:15:19;;;;;;;0.60;0.40;;;19.60;99.90;;;;;;5024432;28;20547;-79
2023/07/05 11:17:46;;;;;;;0.80;0.60;;;19.60;99.90;;;;;;5025044;28;20523;-80
2023/07/05 11:20:51;;;;;;;0.70;0.60;;;19.70;99.90;;;;;;5031275;28;20442;-78
2023/07/05 11:23:55;;;;;;;0.50;0.30;;;19.90;99.70;;;;;;5021322;28;20496;-79
2023/07/05 11:26:46;;;;;;;0.50;0.40;;;20.70;97.10;;;;;;5003782;28;20554;-79
2023/07/05 11:29:48;;;;;;;0.50;0.30;;;21.20;92.50;;;;;;5008832;28;20450;-79
2023/07/05 11:32:15;;;;;;;0.67;0.63;;;21.10;93.50;;;;;;5018836;28;20815;-80
2023/07/05 11:34:48;;;;;;;4.67;0.50;;;21.50;92.00;;;;;;5025268;28;20446;-79
2023/07/05 11:37:50;;;;;;;0.60;0.40;;;21.40;90.80;;;;;;5027135;28;20995;-79
2023/07/05 11:40:56;;;;;;;0.60;0.40;;;22.10;91.50;;;;;;5017700;28;20443;-79
2023/07/05 11:43:27;;;;;;;0.93;0.93;;;22.60;85.40;;;;;;5015639;28;20443;-78
2023/07/05 11:45:55;;;;;;;0.67;0.67;;;22.50;81.60;;;;;;5023907;28;20791;-78
2023/07/05 11:48:40;;;;;;;0.60;0.50;;;21.60;82.80;;;;;;5024898;28;20462;-77
2023/07/05 11:51:32;;;;;;;0.50;0.40;;;21.50;84.50;;;;;;5017360;28;20446;-78
2023/07/05 11:54:01;;;;;;;0.80;0.50;;;22.10;85.50;;;;;;5026302;28;20446;-76
2023/07/05 11:56:30;;;;;;;1.47;0.67;;;22.30;78.70;;;;;;5028300;28;20522;-79
2023/07/05 11:58:59;;;;;;;0.63;0.57;;;22.30;79.20;;;;;;5024895;28;20447;-79
2023/07/05 12:01:30;;;;;;;0.50;0.50;;;21.60;78.90;;;;;;5024724;28;20476;-80
2023/07/05 12:04:03;;;;;;;0.63;0.63;;;20.90;82.10;;;;;;5027126;28;20447;-75
2023/07/05 12:06:38;;;;;;;0.60;0.60;;;21.00;83.70;;;;;;5023444;28;20465;-80
2023/07/05 12:09:09;;;;;;;0.60;0.50;;;21.50;82.70;;;;;;5016330;28;20460;-78
2023/07/05 12:11:38;;;;;;;0.50;0.30;;;22.50;82.40;;;;;;5029533;28;20481;-80
2023/07/05 12:14:07;;;;;;;0.50;0.40;;;23.60;81.00;;;;;;5022334;28;20426;-80
2023/07/05 12:16:36;;;;;;;2.20;1.43;;;23.90;75.40;;;;;;5029281;28;20463;-79
2023/07/05 12:19:05;;;;;;;0.70;0.57;;;24.00;72.90;;;;;;5020691;28;20449;-78
2023/07/05 12:21:33;;;;;;;0.50;0.40;;;23.80;71.50;;;;;;5027570;28;20484;-78
2023/07/05 12:24:03;;;;;;;0.90;0.90;;;22.90;71.20;;;;;;5029884;28;20919;-79
2023/07/05 12:26:34;;;;;;;0.60;0.50;;;22.30;73.50;;;;;;5030877;28;20476;-79
2023/07/05 12:29:03;;;;;;;0.50;0.30;;;22.10;74.00;;;;;;5026789;28;20442;-79
2023/07/05 12:31:31;;;;;;;0.60;0.50;;;22.20;75.10;;;;;;5026712;28;20442;-78
2023/07/05 12:34:03;;;;;;;0.60;0.50;;;22.90;75.90;;;;;;5029450;28;20465;-77
2023/07/05 12:36:40;;;;;;;0.70;0.50;;;23.70;72.20;;;;;;5030518;28;20460;-77
2023/07/05 12:39:09;;;;;;;0.50;0.37;;;23.90;69.00;;;;;;5019266;28;20446;-76
2023/07/05 12:41:36;;;;;;;1.33;0.97;;;24.30;74.00;;;;;;5027437;28;21060;-79
2023/07/05 12:44:05;;;;;;;0.50;0.30;;;25.00;67.60;;;;;;5030250;28;20444;-79
2023/07/05 12:46:34;;;;;;;0.50;0.30;;;24.90;65.00;;;;;;5030662;28;20545;-80
2023/07/05 12:49:12;;;;;;;0.60;0.53;;;25.10;65.20;;;;;;5027699;28;20796;-79
2023/07/05 12:51:49;;;;;;;0.60;0.50;;;24.20;63.80;;;;;;5027109;28;20502;-79
2023/07/05 12:54:16;;;;;;;2.43;1.03;;;23.40;63.50;;;;;;5019952;28;20465;-78
2023/07/05 12:56:45;;;;;;;0.50;0.50;;;23.20;65.80;;;;;;5026110;28;20462;-80
2023/07/05 12:59:26;;;;;;;0.50;0.50;;;24.00;67.50;;;;;;5030696;28;20441;-79
2023/07/05 13:01:53;;;;;;;0.80;0.53;;;24.50;66.20;;;;;;5028556;28;20473;-80
2023/07/05 13:04:23;;;;;;;0.50;0.30;;;24.10;64.20;;;;;;5026452;28;20898;-79